sensor_id;sensor_type;location;lat;lon;timestamp;P1;durP1;ratioP1;P2;durP2;ratioP2
77524;SDS011;66638;50.050;21.124;2023-02-15T00:04:08;32.80;;;15.80;;
77524;SDS011;66638;50.050;21.124;2023-02-15T00:06:55;31.30;;;16.80;;
77524;SDS011;66638;50.050;21.124;2023-02-15T00:09:44;36.30;;;18.60;;
77524;SDS011;66638;50.050;21.124;2023-02-15T00:12:32;35.10;;;19.00;;
77524;SDS011;66638;50.050;21.124;2023-02-15T00:15:20;35.60;;;17.80;;
77524;SDS011;66638;50.050;21.124;2023-02-15T00:18:07;28.90;;;16.30;;
77524;SDS011;66638;50.050;21.124;2023-02-15T00:20:55;30.50;;;16.40;;
77524;SDS011;66638;50.050;21.124;2023-02-15T00:23:43;35.00;;;18.50;;
77524;SDS011;66638;50.050;21.124;2023-02-15T00:29:18;30.70;;;15.80;;
77524;SDS011;66638;50.050;21.124;2023-02-15T00:32:05;31.50;;;17.10;;
77524;SDS011;66638;50.050;21.124;2023-02-15T00:34:53;29.60;;;17.20;;
77524;SDS011;66638;50.050;21.124;2023-02-15T00:37:40;34.10;;;18.50;;
77524;SDS011;66638;50.050;21.124;2023-02-15T00:40:27;28.30;;;17.10;;
77524;SDS011;66638;50.050;21.124;2023-02-15T00:43:15;30.10;;;16.30;;
77524;SDS011;66638;50.050;21.124;2023-02-15T00:48:51;27.40;;;15.20;;
77524;SDS011;66638;50.050;21.124;2023-02-15T00:51:37;33.30;;;16.50;;
77524;SDS011;66638;50.050;21.124;2023-02-15T00:54:25;31.30;;;17.70;;
77524;SDS011;66638;50.050;21.124;2023-02-15T00:57:13;32.70;;;16.80;;
77524;SDS011;66638;50.050;21.124;2023-02-15T01:00:00;27.60;;;15.40;;
77524;SDS011;66638;50.050;21.124;2023-02-15T01:02:47;27.30;;;15.80;;
77524;SDS011;66638;50.050;21.124;2023-02-15T01:05:34;29.40;;;16.00;;
77524;SDS011;66638;50.050;21.124;2023-02-15T01:08:24;30.10;;;15.60;;
77524;SDS011;66638;50.050;21.124;2023-02-15T01:11:13;28.60;;;16.20;;
77524;SDS011;66638;50.050;21.124;2023-02-15T01:14:02;27.30;;;14.80;;
77524;SDS011;66638;50.050;21.124;2023-02-15T01:16:49;29.20;;;16.00;;
77524;SDS011;66638;50.050;21.124;2023-02-15T01:19:36;25.30;;;14.60;;
77524;SDS011;66638;50.050;21.124;2023-02-15T01:22:24;29.80;;;16.90;;
77524;SDS011;66638;50.050;21.124;2023-02-15T01:25:12;27.10;;;14.90;;
77524;SDS011;66638;50.050;21.124;2023-02-15T01:27:59;24.90;;;13.30;;
77524;SDS011;66638;50.050;21.124;2023-02-15T01:30:46;29.60;;;16.20;;
77524;SDS011;66638;50.050;21.124;2023-02-15T01:33:33;28.70;;;15.50;;
77524;SDS011;66638;50.050;21.124;2023-02-15T01:36:20;23.40;;;12.90;;
77524;SDS011;66638;50.050;21.124;2023-02-15T01:39:08;20.40;;;11.60;;
77524;SDS011;66638;50.050;21.124;2023-02-15T01:41:57;22.40;;;11.90;;
77524;SDS011;66638;50.050;21.124;2023-02-15T01:44:52;22.10;;;13.20;;
77524;SDS011;66638;50.050;21.124;2023-02-15T01:48:02;20.80;;;12.60;;
77524;SDS011;66638;50.050;21.124;2023-02-15T01:50:53;22.00;;;12.40;;
77524;SDS011;66638;50.050;21.124;2023-02-15T01:53:43;19.80;;;12.70;;
77524;SDS011;66638;50.050;21.124;2023-02-15T01:56:36;22.70;;;13.20;;
77524;SDS011;66638;50.050;21.124;2023-02-15T01:59:24;23.30;;;13.90;;
77524;SDS011;66638;50.050;21.124;2023-02-15T02:02:13;22.70;;;12.50;;
77524;SDS011;66638;50.050;21.124;2023-02-15T02:05:02;32.80;;;14.30;;
77524;SDS011;66638;50.050;21.124;2023-02-15T02:07:54;25.30;;;14.70;;
77524;SDS011;66638;50.050;21.124;2023-02-15T02:10:43;20.90;;;12.20;;
77524;SDS011;66638;50.050;21.124;2023-02-15T02:13:31;22.90;;;12.20;;
77524;SDS011;66638;50.050;21.124;2023-02-15T02:16:23;22.00;;;12.20;;
77524;SDS011;66638;50.050;21.124;2023-02-15T02:22:49;21.40;;;12.90;;
77524;SDS011;66638;50.050;21.124;2023-02-15T02:25:59;23.90;;;13.60;;
77524;SDS011;66638;50.050;21.124;2023-02-15T02:32:46;22.70;;;11.90;;
77524;SDS011;66638;50.050;21.124;2023-02-15T02:35:49;23.30;;;12.90;;
77524;SDS011;66638;50.050;21.124;2023-02-15T02:42:22;26.90;;;13.70;;
77524;SDS011;66638;50.050;21.124;2023-02-15T02:45:24;25.50;;;14.50;;
77524;SDS011;66638;50.050;21.124;2023-02-15T02:48:14;21.00;;;13.50;;
77524;SDS011;66638;50.050;21.124;2023-02-15T02:51:03;23.00;;;12.70;;
77524;SDS011;66638;50.050;21.124;2023-02-15T02:53:51;20.70;;;12.70;;
77524;SDS011;66638;50.050;21.124;2023-02-15T02:56:45;26.10;;;14.20;;
77524;SDS011;66638;50.050;21.124;2023-02-15T02:59:36;21.50;;;13.00;;
77524;SDS011;66638;50.050;21.124;2023-02-15T03:02:29;27.50;;;13.80;;
77524;SDS011;66638;50.050;21.124;2023-02-15T03:05:20;23.30;;;13.70;;
77524;SDS011;66638;50.050;21.124;2023-02-15T03:08:08;21.60;;;12.30;;
77524;SDS011;66638;50.050;21.124;2023-02-15T03:10:57;18.80;;;12.20;;
77524;SDS011;66638;50.050;21.124;2023-02-15T03:13:47;26.20;;;13.20;;
77524;SDS011;66638;50.050;21.124;2023-02-15T03:16:36;22.40;;;13.10;;
77524;SDS011;66638;50.050;21.124;2023-02-15T03:19:25;23.80;;;13.80;;
77524;SDS011;66638;50.050;21.124;2023-02-15T03:22:18;20.60;;;10.60;;
77524;SDS011;66638;50.050;21.124;2023-02-15T03:25:22;20.80;;;11.30;;
77524;SDS011;66638;50.050;21.124;2023-02-15T03:28:13;20.50;;;11.80;;
77524;SDS011;66638;50.050;21.124;2023-02-15T03:31:04;23.10;;;13.20;;
77524;SDS011;66638;50.050;21.124;2023-02-15T03:34:00;25.60;;;12.70;;
77524;SDS011;66638;50.050;21.124;2023-02-15T03:36:51;21.60;;;12.40;;
77524;SDS011;66638;50.050;21.124;2023-02-15T03:39:45;22.50;;;12.80;;
77524;SDS011;66638;50.050;21.124;2023-02-15T03:42:35;24.50;;;13.90;;
77524;SDS011;66638;50.050;21.124;2023-02-15T03:45:25;21.80;;;12.70;;
77524;SDS011;66638;50.050;21.124;2023-02-15T03:48:14;30.60;;;13.50;;
77524;SDS011;66638;50.050;21.124;2023-02-15T03:51:03;22.40;;;11.90;;
77524;SDS011;66638;50.050;21.124;2023-02-15T03:54:15;23.80;;;12.90;;
77524;SDS011;66638;50.050;21.124;2023-02-15T03:57:27;21.90;;;12.60;;
77524;SDS011;66638;50.050;21.124;2023-02-15T04:00:35;22.70;;;12.20;;
77524;SDS011;66638;50.050;21.124;2023-02-15T04:03:49;22.10;;;12.70;;
77524;SDS011;66638;50.050;21.124;2023-02-15T04:06:40;20.40;;;11.70;;
77524;SDS011;66638;50.050;21.124;2023-02-15T04:09:27;21.50;;;13.30;;
77524;SDS011;66638;50.050;21.124;2023-02-15T04:12:34;22.20;;;13.10;;
77524;SDS011;66638;50.050;21.124;2023-02-15T04:18:29;20.20;;;12.10;;
77524;SDS011;66638;50.050;21.124;2023-02-15T04:21:37;21.30;;;12.00;;
77524;SDS011;66638;50.050;21.124;2023-02-15T04:24:44;29.90;;;14.80;;
77524;SDS011;66638;50.050;21.124;2023-02-15T04:27:52;28.50;;;12.60;;
77524;SDS011;66638;50.050;21.124;2023-02-15T04:30:40;21.70;;;12.30;;
77524;SDS011;66638;50.050;21.124;2023-02-15T04:33:27;23.70;;;12.50;;
77524;SDS011;66638;50.050;21.124;2023-02-15T04:36:14;22.90;;;12.10;;
77524;SDS011;66638;50.050;21.124;2023-02-15T04:39:02;25.60;;;13.70;;
77524;SDS011;66638;50.050;21.124;2023-02-15T04:41:49;21.50;;;12.90;;
77524;SDS011;66638;50.050;21.124;2023-02-15T04:47:23;19.40;;;11.50;;
77524;SDS011;66638;50.050;21.124;2023-02-15T04:52:57;21.20;;;11.70;;
77524;SDS011;66638;50.050;21.124;2023-02-15T04:55:44;24.40;;;13.10;;
77524;SDS011;66638;50.050;21.124;2023-02-15T04:58:32;22.50;;;11.30;;
77524;SDS011;66638;50.050;21.124;2023-02-15T05:01:19;30.70;;;14.00;;
77524;SDS011;66638;50.050;21.124;2023-02-15T05:04:06;25.40;;;13.50;;
77524;SDS011;66638;50.050;21.124;2023-02-15T05:06:54;21.80;;;12.60;;
77524;SDS011;66638;50.050;21.124;2023-02-15T05:09:41;18.30;;;10.70;;
77524;SDS011;66638;50.050;21.124;2023-02-15T05:12:29;19.70;;;11.00;;
77524;SDS011;66638;50.050;21.124;2023-02-15T05:18:03;23.50;;;12.80;;
77524;SDS011;66638;50.050;21.124;2023-02-15T05:20:52;23.10;;;12.70;;
77524;SDS011;66638;50.050;21.124;2023-02-15T05:26:27;23.80;;;12.10;;
77524;SDS011;66638;50.050;21.124;2023-02-15T05:29:34;21.80;;;12.80;;
77524;SDS011;66638;50.050;21.124;2023-02-15T05:38:01;27.40;;;14.30;;
77524;SDS011;66638;50.050;21.124;2023-02-15T05:40:49;28.00;;;15.00;;
77524;SDS011;66638;50.050;21.124;2023-02-15T05:43:38;31.80;;;16.20;;
77524;SDS011;66638;50.050;21.124;2023-02-15T05:46:25;28.10;;;15.50;;
77524;SDS011;66638;50.050;21.124;2023-02-15T05:49:12;28.40;;;13.50;;
77524;SDS011;66638;50.050;21.124;2023-02-15T05:52:00;25.20;;;13.40;;
77524;SDS011;66638;50.050;21.124;2023-02-15T05:54:47;26.00;;;14.20;;
77524;SDS011;66638;50.050;21.124;2023-02-15T05:57:37;27.80;;;14.60;;
77524;SDS011;66638;50.050;21.124;2023-02-15T06:00:25;29.10;;;15.70;;
77524;SDS011;66638;50.050;21.124;2023-02-15T06:05:59;22.20;;;11.70;;
77524;SDS011;66638;50.050;21.124;2023-02-15T06:08:47;23.40;;;12.80;;
77524;SDS011;66638;50.050;21.124;2023-02-15T06:11:34;24.90;;;12.50;;
77524;SDS011;66638;50.050;21.124;2023-02-15T06:14:22;24.80;;;12.80;;
77524;SDS011;66638;50.050;21.124;2023-02-15T06:17:09;26.00;;;13.60;;
77524;SDS011;66638;50.050;21.124;2023-02-15T06:19:56;30.90;;;14.80;;
77524;SDS011;66638;50.050;21.124;2023-02-15T06:25:33;33.60;;;17.40;;
77524;SDS011;66638;50.050;21.124;2023-02-15T06:28:21;30.60;;;14.70;;
77524;SDS011;66638;50.050;21.124;2023-02-15T06:33:56;27.30;;;15.20;;
77524;SDS011;66638;50.050;21.124;2023-02-15T06:36:48;27.20;;;14.50;;
77524;SDS011;66638;50.050;21.124;2023-02-15T06:39:35;28.10;;;14.20;;
77524;SDS011;66638;50.050;21.124;2023-02-15T06:42:22;27.80;;;14.30;;
77524;SDS011;66638;50.050;21.124;2023-02-15T06:45:09;23.90;;;13.00;;
77524;SDS011;66638;50.050;21.124;2023-02-15T06:47:57;19.60;;;11.50;;
77524;SDS011;66638;50.050;21.124;2023-02-15T06:50:44;29.10;;;14.00;;
77524;SDS011;66638;50.050;21.124;2023-02-15T06:53:32;38.30;;;18.00;;
77524;SDS011;66638;50.050;21.124;2023-02-15T06:56:19;41.40;;;24.90;;
77524;SDS011;66638;50.050;21.124;2023-02-15T06:59:10;29.10;;;14.00;;
77524;SDS011;66638;50.050;21.124;2023-02-15T07:01:57;24.50;;;13.80;;
77524;SDS011;66638;50.050;21.124;2023-02-15T07:04:45;31.40;;;16.00;;
77524;SDS011;66638;50.050;21.124;2023-02-15T07:10:19;23.10;;;13.20;;
77524;SDS011;66638;50.050;21.124;2023-02-15T07:13:06;29.30;;;15.10;;
77524;SDS011;66638;50.050;21.124;2023-02-15T07:15:53;21.00;;;12.80;;
77524;SDS011;66638;50.050;21.124;2023-02-15T07:21:27;20.40;;;11.90;;
77524;SDS011;66638;50.050;21.124;2023-02-15T07:24:15;22.40;;;11.50;;
77524;SDS011;66638;50.050;21.124;2023-02-15T07:27:02;22.70;;;12.30;;
77524;SDS011;66638;50.050;21.124;2023-02-15T07:32:36;18.00;;;10.20;;
77524;SDS011;66638;50.050;21.124;2023-02-15T07:35:48;20.50;;;11.50;;
77524;SDS011;66638;50.050;21.124;2023-02-15T07:38:36;25.10;;;12.00;;
77524;SDS011;66638;50.050;21.124;2023-02-15T07:41:25;26.60;;;13.80;;
77524;SDS011;66638;50.050;21.124;2023-02-15T07:44:13;57.20;;;27.70;;
77524;SDS011;66638;50.050;21.124;2023-02-15T07:47:01;29.90;;;17.30;;
77524;SDS011;66638;50.050;21.124;2023-02-15T07:52:36;27.60;;;15.30;;
77524;SDS011;66638;50.050;21.124;2023-02-15T07:55:24;25.50;;;14.10;;
77524;SDS011;66638;50.050;21.124;2023-02-15T07:58:12;26.40;;;14.20;;
77524;SDS011;66638;50.050;21.124;2023-02-15T08:01:14;25.80;;;14.50;;
77524;SDS011;66638;50.050;21.124;2023-02-15T08:04:02;21.70;;;11.90;;
77524;SDS011;66638;50.050;21.124;2023-02-15T08:06:54;24.30;;;13.90;;
77524;SDS011;66638;50.050;21.124;2023-02-15T08:09:41;24.60;;;14.40;;
77524;SDS011;66638;50.050;21.124;2023-02-15T08:12:28;24.20;;;13.80;;
77524;SDS011;66638;50.050;21.124;2023-02-15T08:15:15;29.80;;;13.90;;
77524;SDS011;66638;50.050;21.124;2023-02-15T08:18:02;24.80;;;12.80;;
77524;SDS011;66638;50.050;21.124;2023-02-15T08:23:37;23.30;;;13.00;;
77524;SDS011;66638;50.050;21.124;2023-02-15T08:26:24;25.70;;;15.10;;
77524;SDS011;66638;50.050;21.124;2023-02-15T08:29:12;26.40;;;14.90;;
77524;SDS011;66638;50.050;21.124;2023-02-15T08:32:03;28.80;;;14.90;;
77524;SDS011;66638;50.050;21.124;2023-02-15T08:34:52;29.90;;;14.20;;
77524;SDS011;66638;50.050;21.124;2023-02-15T08:37:39;25.40;;;13.30;;
77524;SDS011;66638;50.050;21.124;2023-02-15T08:40:25;31.30;;;15.70;;
77524;SDS011;66638;50.050;21.124;2023-02-15T08:43:12;22.10;;;11.00;;
77524;SDS011;66638;50.050;21.124;2023-02-15T08:45:59;28.60;;;14.30;;
77524;SDS011;66638;50.050;21.124;2023-02-15T08:48:47;28.10;;;14.70;;
77524;SDS011;66638;50.050;21.124;2023-02-15T08:51:35;26.90;;;13.00;;
77524;SDS011;66638;50.050;21.124;2023-02-15T08:54:24;27.90;;;15.10;;
77524;SDS011;66638;50.050;21.124;2023-02-15T08:57:11;28.30;;;14.70;;
77524;SDS011;66638;50.050;21.124;2023-02-15T08:59:58;27.70;;;14.00;;
77524;SDS011;66638;50.050;21.124;2023-02-15T09:05:33;23.90;;;12.50;;
77524;SDS011;66638;50.050;21.124;2023-02-15T09:11:11;28.40;;;13.40;;
77524;SDS011;66638;50.050;21.124;2023-02-15T09:14:04;26.40;;;14.40;;
77524;SDS011;66638;50.050;21.124;2023-02-15T09:16:55;27.10;;;14.70;;
77524;SDS011;66638;50.050;21.124;2023-02-15T09:19:42;25.90;;;14.30;;
77524;SDS011;66638;50.050;21.124;2023-02-15T09:22:30;27.90;;;15.70;;
77524;SDS011;66638;50.050;21.124;2023-02-15T09:25:18;27.80;;;14.00;;
77524;SDS011;66638;50.050;21.124;2023-02-15T09:28:09;28.10;;;14.70;;
77524;SDS011;66638;50.050;21.124;2023-02-15T09:30:56;28.10;;;13.60;;
77524;SDS011;66638;50.050;21.124;2023-02-15T09:36:33;24.70;;;13.40;;
77524;SDS011;66638;50.050;21.124;2023-02-15T09:39:24;29.10;;;15.10;;
77524;SDS011;66638;50.050;21.124;2023-02-15T09:45:41;30.70;;;13.90;;
77524;SDS011;66638;50.050;21.124;2023-02-15T09:48:41;25.90;;;14.00;;
77524;SDS011;66638;50.050;21.124;2023-02-15T09:51:39;27.40;;;13.90;;
77524;SDS011;66638;50.050;21.124;2023-02-15T09:54:37;26.80;;;14.80;;
77524;SDS011;66638;50.050;21.124;2023-02-15T09:57:56;25.60;;;13.80;;
77524;SDS011;66638;50.050;21.124;2023-02-15T10:07:54;26.90;;;14.90;;
77524;SDS011;66638;50.050;21.124;2023-02-15T10:18:00;22.50;;;14.10;;
77524;SDS011;66638;50.050;21.124;2023-02-15T10:24:44;26.50;;;15.50;;
77524;SDS011;66638;50.050;21.124;2023-02-15T10:27:49;28.20;;;15.20;;
77524;SDS011;66638;50.050;21.124;2023-02-15T10:30:48;26.50;;;15.60;;
77524;SDS011;66638;50.050;21.124;2023-02-15T10:33:39;32.10;;;17.00;;
77524;SDS011;66638;50.050;21.124;2023-02-15T10:36:33;28.50;;;15.50;;
77524;SDS011;66638;50.050;21.124;2023-02-15T10:39:39;80.20;;;41.50;;
77524;SDS011;66638;50.050;21.124;2023-02-15T10:42:47;29.60;;;15.40;;
77524;SDS011;66638;50.050;21.124;2023-02-15T10:46:13;25.10;;;16.20;;
77524;SDS011;66638;50.050;21.124;2023-02-15T10:49:32;22.10;;;16.50;;
77524;SDS011;66638;50.050;21.124;2023-02-15T10:56:03;22.00;;;17.40;;
77524;SDS011;66638;50.050;21.124;2023-02-15T10:59:10;22.60;;;19.90;;
77524;SDS011;66638;50.050;21.124;2023-02-15T11:02:28;21.50;;;19.20;;
77524;SDS011;66638;50.050;21.124;2023-02-15T11:09:03;24.60;;;19.80;;
77524;SDS011;66638;50.050;21.124;2023-02-15T11:11:56;24.30;;;20.90;;
77524;SDS011;66638;50.050;21.124;2023-02-15T11:14:50;24.00;;;21.30;;
77524;SDS011;66638;50.050;21.124;2023-02-15T11:17:50;23.20;;;20.50;;
77524;SDS011;66638;50.050;21.124;2023-02-15T11:20:50;22.90;;;20.50;;
77524;SDS011;66638;50.050;21.124;2023-02-15T11:23:45;22.50;;;20.10;;
77524;SDS011;66638;50.050;21.124;2023-02-15T11:26:34;22.30;;;20.00;;
77524;SDS011;66638;50.050;21.124;2023-02-15T11:33:17;21.70;;;19.40;;
77524;SDS011;66638;50.050;21.124;2023-02-15T11:39:25;23.30;;;20.90;;
77524;SDS011;66638;50.050;21.124;2023-02-15T11:45:40;19.20;;;17.20;;
77524;SDS011;66638;50.050;21.124;2023-02-15T11:48:30;21.50;;;19.40;;
77524;SDS011;66638;50.050;21.124;2023-02-15T11:51:18;21.80;;;19.70;;
77524;SDS011;66638;50.050;21.124;2023-02-15T11:54:08;21.60;;;19.40;;
77524;SDS011;66638;50.050;21.124;2023-02-15T11:56:56;21.90;;;19.70;;
77524;SDS011;66638;50.050;21.124;2023-02-15T12:00:10;22.40;;;20.10;;
77524;SDS011;66638;50.050;21.124;2023-02-15T12:03:03;22.20;;;19.90;;
77524;SDS011;66638;50.050;21.124;2023-02-15T12:06:16;21.00;;;19.00;;
77524;SDS011;66638;50.050;21.124;2023-02-15T12:12:47;22.30;;;20.00;;
77524;SDS011;66638;50.050;21.124;2023-02-15T12:15:34;21.50;;;19.20;;
77524;SDS011;66638;50.050;21.124;2023-02-15T12:18:27;21.30;;;19.10;;
77524;SDS011;66638;50.050;21.124;2023-02-15T12:21:29;20.50;;;18.30;;
77524;SDS011;66638;50.050;21.124;2023-02-15T12:27:32;21.10;;;18.80;;
77524;SDS011;66638;50.050;21.124;2023-02-15T12:30:22;21.50;;;19.10;;
77524;SDS011;66638;50.050;21.124;2023-02-15T12:36:24;22.70;;;20.20;;
77524;SDS011;66638;50.050;21.124;2023-02-15T12:39:18;21.40;;;19.10;;
77524;SDS011;66638;50.050;21.124;2023-02-15T12:42:15;24.30;;;21.70;;
77524;SDS011;66638;50.050;21.124;2023-02-15T12:45:19;22.10;;;19.80;;
77524;SDS011;66638;50.050;21.124;2023-02-15T12:48:14;22.60;;;20.30;;
77524;SDS011;66638;50.050;21.124;2023-02-15T12:51:08;20.40;;;18.10;;
77524;SDS011;66638;50.050;21.124;2023-02-15T12:53:58;23.80;;;21.30;;
77524;SDS011;66638;50.050;21.124;2023-02-15T12:56:47;20.20;;;18.10;;
77524;SDS011;66638;50.050;21.124;2023-02-15T12:59:35;23.30;;;20.90;;
77524;SDS011;66638;50.050;21.124;2023-02-15T13:02:26;22.10;;;19.60;;
77524;SDS011;66638;50.050;21.124;2023-02-15T13:08:28;22.30;;;19.40;;
77524;SDS011;66638;50.050;21.124;2023-02-15T13:14:31;19.60;;;17.60;;
77524;SDS011;66638;50.050;21.124;2023-02-15T13:17:21;19.40;;;17.10;;
77524;SDS011;66638;50.050;21.124;2023-02-15T13:20:17;20.90;;;18.60;;
77524;SDS011;66638;50.050;21.124;2023-02-15T13:23:20;21.80;;;17.40;;
77524;SDS011;66638;50.050;21.124;2023-02-15T13:26:16;19.30;;;16.70;;
77524;SDS011;66638;50.050;21.124;2023-02-15T13:29:06;21.30;;;19.00;;
77524;SDS011;66638;50.050;21.124;2023-02-15T13:32:05;22.50;;;18.30;;
77524;SDS011;66638;50.050;21.124;2023-02-15T13:34:59;22.50;;;17.60;;
77524;SDS011;66638;50.050;21.124;2023-02-15T13:38:00;23.00;;;17.20;;
77524;SDS011;66638;50.050;21.124;2023-02-15T13:41:01;20.20;;;16.40;;
77524;SDS011;66638;50.050;21.124;2023-02-15T13:44:00;19.90;;;16.90;;
77524;SDS011;66638;50.050;21.124;2023-02-15T13:47:13;24.60;;;18.30;;
77524;SDS011;66638;50.050;21.124;2023-02-15T14:00:21;23.90;;;16.40;;
77524;SDS011;66638;50.050;21.124;2023-02-15T14:03:40;20.10;;;15.40;;
77524;SDS011;66638;50.050;21.124;2023-02-15T14:10:18;22.80;;;15.00;;
77524;SDS011;66638;50.050;21.124;2023-02-15T14:20:16;24.80;;;15.60;;
77524;SDS011;66638;50.050;21.124;2023-02-15T14:23:34;22.40;;;14.80;;
77524;SDS011;66638;50.050;21.124;2023-02-15T14:30:00;23.90;;;14.20;;
77524;SDS011;66638;50.050;21.124;2023-02-15T14:32:55;24.80;;;14.30;;
77524;SDS011;66638;50.050;21.124;2023-02-15T14:35:48;25.10;;;15.40;;
77524;SDS011;66638;50.050;21.124;2023-02-15T14:38:38;23.70;;;15.80;;
77524;SDS011;66638;50.050;21.124;2023-02-15T14:41:50;20.60;;;14.40;;
77524;SDS011;66638;50.050;21.124;2023-02-15T14:47:55;27.00;;;16.70;;
77524;SDS011;66638;50.050;21.124;2023-02-15T14:51:03;25.90;;;15.70;;
77524;SDS011;66638;50.050;21.124;2023-02-15T14:53:50;28.70;;;18.00;;
77524;SDS011;66638;50.050;21.124;2023-02-15T14:56:38;25.10;;;16.80;;
77524;SDS011;66638;50.050;21.124;2023-02-15T14:59:26;25.50;;;15.90;;
77524;SDS011;66638;50.050;21.124;2023-02-15T15:02:43;24.00;;;14.20;;
77524;SDS011;66638;50.050;21.124;2023-02-15T15:05:35;28.80;;;17.50;;
77524;SDS011;66638;50.050;21.124;2023-02-15T15:08:37;34.20;;;19.50;;
77524;SDS011;66638;50.050;21.124;2023-02-15T15:11:37;24.90;;;15.30;;
77524;SDS011;66638;50.050;21.124;2023-02-15T15:14:37;27.00;;;15.80;;
77524;SDS011;66638;50.050;21.124;2023-02-15T15:20:45;27.10;;;15.90;;
77524;SDS011;66638;50.050;21.124;2023-02-15T15:23:38;32.80;;;17.80;;
77524;SDS011;66638;50.050;21.124;2023-02-15T15:26:31;26.50;;;17.10;;
77524;SDS011;66638;50.050;21.124;2023-02-15T15:32:35;22.20;;;13.60;;
77524;SDS011;66638;50.050;21.124;2023-02-15T15:38:55;28.40;;;15.60;;
77524;SDS011;66638;50.050;21.124;2023-02-15T15:42:12;35.20;;;19.20;;
77524;SDS011;66638;50.050;21.124;2023-02-15T15:48:26;27.20;;;16.30;;
77524;SDS011;66638;50.050;21.124;2023-02-15T15:51:25;27.20;;;15.30;;
77524;SDS011;66638;50.050;21.124;2023-02-15T15:54:16;27.80;;;15.50;;
77524;SDS011;66638;50.050;21.124;2023-02-15T15:57:06;28.70;;;14.50;;
77524;SDS011;66638;50.050;21.124;2023-02-15T16:00:02;42.00;;;19.80;;
77524;SDS011;66638;50.050;21.124;2023-02-15T16:02:59;39.10;;;20.00;;
77524;SDS011;66638;50.050;21.124;2023-02-15T16:05:46;38.10;;;19.50;;
77524;SDS011;66638;50.050;21.124;2023-02-15T16:08:35;33.50;;;18.30;;
77524;SDS011;66638;50.050;21.124;2023-02-15T16:11:25;35.30;;;19.00;;
77524;SDS011;66638;50.050;21.124;2023-02-15T16:17:28;38.50;;;19.30;;
77524;SDS011;66638;50.050;21.124;2023-02-15T16:20:27;40.10;;;21.20;;
77524;SDS011;66638;50.050;21.124;2023-02-15T16:26:58;40.90;;;24.20;;
77524;SDS011;66638;50.050;21.124;2023-02-15T16:29:58;41.00;;;22.00;;
77524;SDS011;66638;50.050;21.124;2023-02-15T16:32:45;33.90;;;20.20;;
77524;SDS011;66638;50.050;21.124;2023-02-15T16:35:33;37.10;;;20.60;;
77524;SDS011;66638;50.050;21.124;2023-02-15T16:41:50;40.90;;;21.30;;
77524;SDS011;66638;50.050;21.124;2023-02-15T16:44:41;47.40;;;22.30;;
77524;SDS011;66638;50.050;21.124;2023-02-15T16:47:29;40.20;;;20.70;;
77524;SDS011;66638;50.050;21.124;2023-02-15T16:50:19;40.30;;;21.00;;
77524;SDS011;66638;50.050;21.124;2023-02-15T16:53:14;37.00;;;20.60;;
77524;SDS011;66638;50.050;21.124;2023-02-15T16:56:08;38.80;;;20.40;;
77524;SDS011;66638;50.050;21.124;2023-02-15T16:58:58;41.10;;;21.20;;
77524;SDS011;66638;50.050;21.124;2023-02-15T17:01:46;45.10;;;22.20;;
77524;SDS011;66638;50.050;21.124;2023-02-15T17:04:33;38.90;;;21.70;;
77524;SDS011;66638;50.050;21.124;2023-02-15T17:07:27;46.60;;;27.20;;
77524;SDS011;66638;50.050;21.124;2023-02-15T17:10:32;52.40;;;29.40;;
77524;SDS011;66638;50.050;21.124;2023-02-15T17:19:24;37.90;;;19.10;;
77524;SDS011;66638;50.050;21.124;2023-02-15T17:22:17;34.30;;;18.80;;
77524;SDS011;66638;50.050;21.124;2023-02-15T17:25:14;37.70;;;20.10;;
77524;SDS011;66638;50.050;21.124;2023-02-15T17:28:14;40.40;;;19.70;;
77524;SDS011;66638;50.050;21.124;2023-02-15T17:31:06;42.30;;;19.40;;
77524;SDS011;66638;50.050;21.124;2023-02-15T17:33:55;37.60;;;18.90;;
77524;SDS011;66638;50.050;21.124;2023-02-15T17:36:56;42.10;;;23.10;;
77524;SDS011;66638;50.050;21.124;2023-02-15T17:39:46;38.90;;;20.90;;
77524;SDS011;66638;50.050;21.124;2023-02-15T17:45:21;37.80;;;18.80;;
77524;SDS011;66638;50.050;21.124;2023-02-15T17:48:13;39.50;;;20.30;;
77524;SDS011;66638;50.050;21.124;2023-02-15T17:51:11;39.60;;;20.90;;
77524;SDS011;66638;50.050;21.124;2023-02-15T17:54:08;41.90;;;19.90;;
77524;SDS011;66638;50.050;21.124;2023-02-15T17:57:20;36.00;;;18.60;;
77524;SDS011;66638;50.050;21.124;2023-02-15T18:00:07;36.90;;;20.30;;
77524;SDS011;66638;50.050;21.124;2023-02-15T18:03:16;37.70;;;19.30;;
77524;SDS011;66638;50.050;21.124;2023-02-15T18:06:27;36.10;;;18.40;;
77524;SDS011;66638;50.050;21.124;2023-02-15T18:09:41;34.80;;;18.40;;
77524;SDS011;66638;50.050;21.124;2023-02-15T18:12:50;36.50;;;19.60;;
77524;SDS011;66638;50.050;21.124;2023-02-15T18:15:42;38.10;;;19.40;;
77524;SDS011;66638;50.050;21.124;2023-02-15T18:18:30;31.90;;;18.00;;
77524;SDS011;66638;50.050;21.124;2023-02-15T18:21:18;42.60;;;20.80;;
77524;SDS011;66638;50.050;21.124;2023-02-15T18:24:13;31.70;;;17.40;;
77524;SDS011;66638;50.050;21.124;2023-02-15T18:29:50;35.80;;;18.40;;
77524;SDS011;66638;50.050;21.124;2023-02-15T18:32:37;42.40;;;21.40;;
77524;SDS011;66638;50.050;21.124;2023-02-15T18:35:27;82.60;;;39.70;;
77524;SDS011;66638;50.050;21.124;2023-02-15T18:38:16;64.10;;;31.50;;
77524;SDS011;66638;50.050;21.124;2023-02-15T18:41:03;41.90;;;22.10;;
77524;SDS011;66638;50.050;21.124;2023-02-15T18:43:51;57.30;;;26.40;;
77524;SDS011;66638;50.050;21.124;2023-02-15T18:46:40;112.50;;;50.10;;
77524;SDS011;66638;50.050;21.124;2023-02-15T18:49:28;116.80;;;49.20;;
77524;SDS011;66638;50.050;21.124;2023-02-15T18:52:22;85.80;;;43.10;;
77524;SDS011;66638;50.050;21.124;2023-02-15T18:55:15;94.10;;;46.10;;
77524;SDS011;66638;50.050;21.124;2023-02-15T18:58:08;114.20;;;54.20;;
77524;SDS011;66638;50.050;21.124;2023-02-15T19:01:01;90.40;;;43.30;;
77524;SDS011;66638;50.050;21.124;2023-02-15T19:03:49;95.30;;;47.20;;
77524;SDS011;66638;50.050;21.124;2023-02-15T19:06:39;101.50;;;49.60;;
77524;SDS011;66638;50.050;21.124;2023-02-15T19:09:29;95.70;;;45.70;;
77524;SDS011;66638;50.050;21.124;2023-02-15T19:12:19;105.30;;;51.60;;
77524;SDS011;66638;50.050;21.124;2023-02-15T19:15:12;131.70;;;57.00;;
77524;SDS011;66638;50.050;21.124;2023-02-15T19:18:02;110.10;;;52.60;;
77524;SDS011;66638;50.050;21.124;2023-02-15T19:20:49;93.00;;;48.50;;
77524;SDS011;66638;50.050;21.124;2023-02-15T19:23:37;72.30;;;35.50;;
77524;SDS011;66638;50.050;21.124;2023-02-15T19:26:24;109.30;;;52.80;;
77524;SDS011;66638;50.050;21.124;2023-02-15T19:29:13;112.20;;;49.00;;
77524;SDS011;66638;50.050;21.124;2023-02-15T19:32:03;86.00;;;41.70;;
77524;SDS011;66638;50.050;21.124;2023-02-15T19:34:50;76.30;;;38.70;;
77524;SDS011;66638;50.050;21.124;2023-02-15T19:37:38;82.80;;;44.00;;
77524;SDS011;66638;50.050;21.124;2023-02-15T19:40:28;101.00;;;49.50;;
77524;SDS011;66638;50.050;21.124;2023-02-15T19:43:18;118.70;;;53.60;;